createdAt,value
2023-01-13T00:01:23.629Z,0.8193979933110368
2023-01-13T00:07:51.845Z,0.9297658862876255
2023-01-13T00:19:01.933Z,0.6354515050167224
2023-01-13T00:25:26.479Z,0.6722408026755853
2023-01-13T00:31:53.108Z,0.3979933110367893
2023-01-13T00:38:18.299Z,0.4280936454849498
2023-01-13T00:44:44.672Z,0.391304347826087
2023-01-13T00:51:11.403Z,0.568561872909699
2023-01-13T00:58:54.741Z,0.40468227424749165
2023-01-13T01:11:20.785Z,0.9698996655518395
2023-01-13T01:18:22.726Z,2.117056856187291
2023-01-13T01:24:49.373Z,1.919732441471572
2023-01-13T01:31:16.408Z,1.608695652173913
2023-01-13T01:37:40.833Z,2.2642140468227425
2023-01-13T01:47:52.890Z,2.0501672240802677
2023-01-13T01:54:22.854Z,2.4581939799331103
2023-01-13T02:00:47.605Z,2.809364548494983
2023-01-13T02:07:11.945Z,3.150501672240803
2023-01-13T02:13:37.185Z,3.468227424749164
2023-01-13T02:20:07.036Z,3.8461538461538463
2023-01-13T02:26:32.792Z,3.488294314381271
2023-01-13T02:37:43.747Z,3.0100334448160537
2023-01-13T02:46:33.887Z,3.5785953177257523
2023-01-13T02:56:11.369Z,3.408026755852843
2023-01-13T03:06:27.496Z,2.882943143812709
2023-01-13T03:12:55.821Z,3.5852842809364547
2023-01-13T03:19:18.789Z,3.725752508361204
2023-01-13T03:25:43.173Z,4.839464882943144
2023-01-13T03:32:08.435Z,5.494983277591973
2023-01-13T03:39:25.159Z,5.578595317725752
2023-01-13T03:45:53.703Z,4.311036789297659
2023-01-13T03:52:18.033Z,5.926421404682274
2023-01-13T03:58:45.019Z,4.367892976588629
2023-01-13T04:05:15.867Z,5.792642140468227
2023-01-13T04:11:47.108Z,4.782608695652174
2023-01-13T04:19:20.529Z,5.237458193979933
2023-01-13T04:32:09.107Z,4.9799331103678925
2023-01-13T04:38:34.760Z,4.377926421404682
2023-01-13T04:51:09.270Z,5.1806020066889635
2023-01-13T04:57:35.061Z,6.0602006688963215
2023-01-13T05:04:00.973Z,5.929765886287625
2023-01-13T05:10:24.711Z,6.20066889632107
2023-01-13T05:19:27.971Z,7.903010033444816
2023-01-13T05:25:52.917Z,7.7324414715719065
2023-01-13T05:32:20.942Z,6.705685618729097
2023-01-13T05:38:47.756Z,8.003344481605351
2023-01-13T05:45:15.745Z,6.274247491638796
2023-01-13T06:01:59.168Z,7.294314381270903
2023-01-13T06:08:28.183Z,7.645484949832776
2023-01-13T06:14:56.129Z,6.949832775919733
2023-01-13T06:21:48.645Z,6.270903010033445
2023-01-13T06:28:15.176Z,5.889632107023411
2023-01-13T06:34:44.494Z,6.1638795986622075
2023-01-13T06:44:27.290Z,5.976588628762542
2023-01-13T06:56:33.312Z,6.929765886287625
2023-01-13T07:03:00.667Z,6.806020066889632
2023-01-13T07:09:27.315Z,6.444816053511706
2023-01-13T07:20:53.224Z,6.016722408026756
2023-01-13T07:27:20.867Z,5.739130434782608
2023-01-13T07:36:53.081Z,6.026755852842809
2023-01-13T07:43:20.725Z,6.695652173913044
2023-01-13T07:49:50.387Z,4.096989966555184
2023-01-13T07:56:25.573Z,5.173913043478261
2023-01-13T08:02:51.414Z,4.040133779264214
2023-01-13T08:09:16.803Z,3.8260869565217392
2023-01-13T08:15:42.948Z,5.394648829431438
2023-01-13T08:33:12.128Z,3.2876254180602005
2023-01-13T08:39:36.881Z,2.2675585284280935
2023-01-13T08:46:02.176Z,2.230769230769231
2023-01-13T08:52:26.646Z,3.0
2023-01-13T08:58:51.762Z,2.05685618729097
2023-01-13T09:05:17.828Z,1.9565217391304348
2023-01-13T09:11:42.877Z,2.5150501672240804
2023-01-13T09:18:09.306Z,1.8929765886287626
2023-01-13T09:24:33.751Z,1.9966555183946488
2023-01-13T09:31:00.022Z,2.6220735785953178
2023-01-13T09:37:24.180Z,3.237458193979933
2023-01-13T09:43:48.992Z,1.745819397993311
2023-01-13T09:50:13.761Z,3.150501672240803
2023-01-13T09:56:38.577Z,3.2675585284280935
2023-01-13T10:03:04.720Z,3.7959866220735785
2023-01-13T10:12:16.608Z,2.719063545150502
2023-01-13T10:18:42.196Z,5.066889632107023
2023-01-13T10:25:10.397Z,3.4749163879598663
2023-01-13T10:31:35.341Z,4.802675585284281
2023-01-13T10:38:00.554Z,4.2675585284280935
2023-01-13T10:44:25.021Z,5.889632107023411
2023-01-13T10:50:50.464Z,5.688963210702341
2023-01-13T10:57:14.765Z,4.869565217391305
2023-01-13T11:03:39.128Z,2.709030100334448
2023-01-13T11:10:04.052Z,4.304347826086956
2023-01-13T11:17:56.683Z,5.474916387959866
2023-01-13T11:25:34.555Z,5.632107023411371
2023-01-13T11:38:43.173Z,4.070234113712375
2023-01-13T11:49:42.121Z,4.448160535117057
2023-01-13T11:56:06.706Z,4.963210702341137
2023-01-13T12:02:31.026Z,3.8528428093645486
2023-01-13T12:08:56.026Z,4.665551839464883
2023-01-13T12:18:02.249Z,3.809364548494983
2023-01-13T12:30:27.721Z,3.2642140468227425
2023-01-13T12:41:41.982Z,2.6153846153846154
2023-01-13T12:48:07.488Z,3.080267558528428
2023-01-13T12:54:32.541Z,1.7892976588628762
2023-01-13T13:00:58.945Z,3.301003344481605
2023-01-13T13:07:23.590Z,2.2274247491638794
2023-01-13T13:13:48.958Z,2.448160535117057
2023-01-13T13:20:13.811Z,2.1036789297658864
2023-01-13T13:26:38.497Z,2.8127090301003346
2023-01-13T13:34:11.306Z,2.37123745819398
2023-01-13T13:40:36.101Z,2.7859531772575252
2023-01-13T13:47:01.292Z,1.9832775919732442
2023-01-13T13:53:26.696Z,3.1939799331103678
2023-01-13T13:59:51.734Z,2.1270903010033444
2023-01-13T14:11:20.736Z,2.612040133779264
2023-01-13T14:17:46.415Z,2.234113712374582
2023-01-13T14:28:34.560Z,2.311036789297659
2023-01-13T14:34:59.560Z,3.240802675585284
2023-01-13T14:44:58.554Z,2.3076923076923075
2023-01-13T14:51:23.206Z,2.5250836120401337
2023-01-13T14:57:49.606Z,2.6421404682274248
2023-01-13T15:04:16.105Z,2.4214046822742477
2023-01-13T15:10:50.692Z,2.4949832775919734
2023-01-13T15:17:14.759Z,2.722408026755853
2023-01-13T15:23:40.545Z,1.608695652173913
2023-01-13T15:30:05.835Z,3.351170568561873
2023-01-13T15:36:27.787Z,2.3946488294314383
2023-01-13T15:46:42.852Z,2.4816053511705687
2023-01-13T15:53:04.619Z,1.9632107023411371
2023-01-13T15:59:26.154Z,2.1739130434782608
2023-01-13T16:05:48.141Z,2.37123745819398
2023-01-13T16:12:10.355Z,1.8193979933110367
2023-01-13T16:18:32.250Z,1.471571906354515
2023-01-13T16:24:54.242Z,2.0635451505016724
2023-01-13T16:36:09.701Z,1.806020066889632
2023-01-13T16:42:34.003Z,3.4983277591973243
2023-01-13T16:48:56.249Z,2.3377926421404682
2023-01-13T17:00:24.663Z,2.4749163879598663
2023-01-13T17:06:46.086Z,3.839464882943144
2023-01-13T17:14:57.114Z,3.7357859531772575
2023-01-13T17:24:53.356Z,4.030100334448161
2023-01-13T17:34:00.822Z,5.170568561872909
2023-01-13T17:40:49.512Z,3.869565217391304
2023-01-13T17:47:10.450Z,4.682274247491639
2023-01-13T17:54:23.847Z,4.250836120401337
2023-01-13T18:00:45.759Z,5.678929765886288
2023-01-13T18:07:07.263Z,0.862876254180602
2023-01-13T18:13:29.100Z,0.6923076923076923
2023-01-13T18:19:52.178Z,1.0434782608695652
2023-01-13T18:26:13.521Z,2.652173913043478
2023-01-13T18:34:46.333Z,5.615384615384615
2023-01-13T18:41:08.725Z,5.39799331103679
2023-01-13T18:47:30.608Z,3.6220735785953178
2023-01-13T18:55:52.186Z,4.618729096989966
2023-01-13T19:04:06.648Z,5.2207357859531776
2023-01-13T19:10:28.800Z,3.74247491638796
2023-01-13T19:16:51.775Z,4.260869565217392
2023-01-13T19:23:14.366Z,4.481605351170568
2023-01-13T19:29:36.025Z,3.1839464882943145
2023-01-13T19:35:58.552Z,4.327759197324415
2023-01-13T19:42:21.182Z,1.351170568561873
2023-01-13T19:48:54.491Z,1.157190635451505
2023-01-13T19:58:22.632Z,2.387959866220736
2023-01-13T20:04:44.578Z,1.9431438127090301
2023-01-13T20:15:16.861Z,3.4648829431438126
2023-01-13T20:21:54.200Z,2.8160535117056855
2023-01-13T20:28:20.042Z,3.8060200668896322
2023-01-13T20:34:45.364Z,1.7926421404682273
2023-01-13T20:41:11.395Z,3.6655518394648827
2023-01-13T20:47:35.421Z,2.0
2023-01-13T20:54:01.680Z,2.321070234113712
2023-01-13T21:00:25.883Z,2.270903010033445
2023-01-13T21:06:48.449Z,3.82943143812709
2023-01-13T21:13:10.543Z,0.5351170568561873
2023-01-13T21:19:33.135Z,1.334448160535117
2023-01-13T21:25:56.300Z,0.8361204013377926
2023-01-13T21:32:18.726Z,1.7959866220735785
2023-01-13T21:38:43.751Z,2.431438127090301
2023-01-13T21:45:06.983Z,3.4849498327759196
2023-01-13T21:51:30.315Z,2.782608695652174
2023-01-13T21:57:53.587Z,2.1337792642140467
2023-01-13T22:04:16.632Z,2.4180602006688963
2023-01-13T22:10:45.848Z,2.096989966555184
2023-01-13T22:17:09.898Z,2.765886287625418
2023-01-13T22:23:32.337Z,2.230769230769231
2023-01-13T22:29:57.551Z,2.879598662207358
2023-01-13T22:36:21.287Z,2.4615384615384617
2023-01-13T22:44:57.547Z,1.3612040133779264
2023-01-13T22:51:23.167Z,1.4849498327759196
2023-01-13T22:57:48.850Z,1.0702341137123745
2023-01-13T23:05:18.500Z,1.0735785953177257
2023-01-13T23:11:47.957Z,1.2240802675585285
2023-01-13T23:18:24.129Z,1.040133779264214
2023-01-13T23:25:44.946Z,1.0869565217391304
2023-01-13T23:32:09.122Z,1.5618729096989967
2023-01-13T23:38:35.876Z,0.7959866220735786
2023-01-13T23:45:02.996Z,0.8461538461538461
2023-01-13T23:51:30.044Z,1.0635451505016722
